createdAt,value
2017-11-27T00:00:14.930Z,99.99
2017-11-27T00:01:24.900Z,99.99
2017-11-27T00:02:34.604Z,99.99
2017-11-27T00:03:44.050Z,99.99
2017-11-27T00:04:53.523Z,99.99
2017-11-27T00:06:03.468Z,99.99
2017-11-27T00:07:13.432Z,99.99
2017-11-27T00:08:23.147Z,99.99
2017-11-27T00:09:32.581Z,99.99
2017-11-27T00:10:42.040Z,99.99
2017-11-27T00:11:51.776Z,99.99
2017-11-27T00:13:01.480Z,99.99
2017-11-27T00:14:11.470Z,99.99
2017-11-27T00:15:21.180Z,99.99
2017-11-27T00:16:30.880Z,99.99
2017-11-27T00:17:40.872Z,99.99
2017-11-27T00:18:50.596Z,99.99
2017-11-27T00:20:00.304Z,99.99
2017-11-27T00:21:10.027Z,99.99
2017-11-27T00:22:19.727Z,99.99
2017-11-27T00:23:29.703Z,99.99
2017-11-27T00:24:39.141Z,99.99
2017-11-27T00:25:48.837Z,99.99
2017-11-27T00:26:58.544Z,99.99
2017-11-27T00:28:08.777Z,99.99
2017-11-27T00:29:18.479Z,99.99
2017-11-27T00:30:28.198Z,99.99
2017-11-27T00:31:38.164Z,99.99
2017-11-27T00:32:47.643Z,99.99
2017-11-27T00:33:57.613Z,99.99
2017-11-27T00:35:07.606Z,99.99
2017-11-27T00:36:17.065Z,99.99
2017-11-27T00:37:26.772Z,99.99
2017-11-27T00:38:36.763Z,99.99
2017-11-27T00:39:46.469Z,99.99
2017-11-27T00:40:56.172Z,99.99
2017-11-27T00:42:05.884Z,99.99
2017-11-27T00:43:15.323Z,99.99
2017-11-27T00:44:25.025Z,99.99
2017-11-27T00:45:34.744Z,99.99
2017-11-27T00:46:44.713Z,99.99
2017-11-27T00:47:54.156Z,99.99
2017-11-27T00:49:04.121Z,99.99
2017-11-27T00:50:14.103Z,99.99
2017-11-27T00:51:23.844Z,99.99
2017-11-27T00:52:33.018Z,99.99
2017-11-27T00:53:42.468Z,99.99
2017-11-27T00:54:52.439Z,99.99
2017-11-27T00:56:01.877Z,99.99
2017-11-27T00:57:11.615Z,99.99
2017-11-27T00:58:21.319Z,99.99
2017-11-27T00:59:30.779Z,99.99
2017-11-27T01:00:40.586Z,99.99
2017-11-27T01:01:50.292Z,99.99
2017-11-27T01:03:00.266Z,99.99
2017-11-27T01:04:10.243Z,99.99
2017-11-27T01:05:19.699Z,99.99
2017-11-27T01:06:29.646Z,99.99
2017-11-27T01:07:39.627Z,99.99
2017-11-27T01:08:48.804Z,99.99
2017-11-27T01:09:58.792Z,99.99
2017-11-27T01:11:08.524Z,99.99
2017-11-27T01:12:18.517Z,99.99
2017-11-27T01:13:28.492Z,99.99
2017-11-27T01:14:38.477Z,99.99
2017-11-27T01:15:48.173Z,99.99
2017-11-27T01:16:58.130Z,99.99
2017-11-27T01:18:07.836Z,99.99
2017-11-27T01:19:17.818Z,99.99
2017-11-27T01:20:27.785Z,99.99
2017-11-27T01:21:37.766Z,99.99
2017-11-27T01:22:47.498Z,99.99
2017-11-27T01:23:57.448Z,99.99
2017-11-27T01:25:07.152Z,99.99
2017-11-27T01:26:17.129Z,99.99
2017-11-27T01:27:27.123Z,99.99
2017-11-27T01:28:36.819Z,99.99
2017-11-27T01:29:46.267Z,99.99
2017-11-27T01:30:56.229Z,99.99
2017-11-27T01:32:06.207Z,99.99
2017-11-27T01:33:16.185Z,99.99
2017-11-27T01:34:26.155Z,99.99
2017-11-27T01:35:35.866Z,99.99
2017-11-27T01:36:45.581Z,99.99
2017-11-27T01:37:54.496Z,99.99
2017-11-27T01:39:03.679Z,99.99
2017-11-27T01:40:13.650Z,99.99
2017-11-27T01:41:23.089Z,99.99
2017-11-27T01:42:33.071Z,99.99
2017-11-27T01:43:43.032Z,99.99
2017-11-27T01:44:53.002Z,99.99
2017-11-27T01:46:03.022Z,99.99
2017-11-27T01:47:12.195Z,99.99
2017-11-27T01:48:21.894Z,99.99
2017-11-27T01:49:31.619Z,99.99
2017-11-27T01:50:41.603Z,99.99
2017-11-27T01:51:51.586Z,99.99
2017-11-27T01:53:01.551Z,99.99
2017-11-27T01:54:11.515Z,99.99
2017-11-27T01:55:21.212Z,99.99
2017-11-27T01:56:31.181Z,99.99
2017-11-27T01:57:40.890Z,99.99
2017-11-27T01:58:50.611Z,99.99
2017-11-27T01:59:59.786Z,99.99
2017-11-27T02:01:09.243Z,99.99
2017-11-27T02:02:19.209Z,99.99
2017-11-27T02:03:28.928Z,99.99
2017-11-27T02:04:38.385Z,99.99
2017-11-27T02:05:48.086Z,99.99
2017-11-27T02:06:58.057Z,99.99
2017-11-27T02:08:07.496Z,99.99
2017-11-27T02:09:17.206Z,99.99
2017-11-27T02:10:26.936Z,99.99
2017-11-27T02:11:36.652Z,99.99
2017-11-27T02:12:46.364Z,99.99
2017-11-27T02:13:56.355Z,99.99
2017-11-27T02:15:06.337Z,99.99
2017-11-27T02:16:16.312Z,99.99
2017-11-27T02:17:26.013Z,99.99
2017-11-27T02:18:35.979Z,99.99
2017-11-27T02:19:45.430Z,99.99
2017-11-27T02:20:55.401Z,99.99
2017-11-27T02:22:04.838Z,99.99
2017-11-27T02:23:14.017Z,99.99
2017-11-27T02:24:23.747Z,99.99
2017-11-27T02:25:33.466Z,99.99
2017-11-27T02:26:42.911Z,99.99
2017-11-27T02:27:52.879Z,99.99
2017-11-27T02:29:02.847Z,99.99
2017-11-27T02:30:12.293Z,99.99
2017-11-27T02:31:22.028Z,99.99
2017-11-27T02:32:31.996Z,99.99
2017-11-27T02:33:41.445Z,99.99
2017-11-27T02:34:50.926Z,99.99
2017-11-27T02:36:00.633Z,99.99
2017-11-27T02:37:10.620Z,99.99
2017-11-27T02:38:20.587Z,99.99
2017-11-27T02:39:30.043Z,99.99
2017-11-27T02:40:39.233Z,99.99
2017-11-27T02:41:48.936Z,99.99
2017-11-27T02:42:58.676Z,99.99
2017-11-27T02:44:08.381Z,99.99
2017-11-27T02:45:18.373Z,99.99
2017-11-27T02:46:27.829Z,99.99
2017-11-27T02:47:37.802Z,99.99
2017-11-27T02:48:47.513Z,99.99
2017-11-27T02:49:57.228Z,99.99
2017-11-27T02:51:07.191Z,99.99
2017-11-27T02:52:16.894Z,99.99
2017-11-27T02:53:26.083Z,99.99
2017-11-27T02:54:35.802Z,99.99
2017-11-27T02:55:45.260Z,99.99
2017-11-27T02:56:55.232Z,99.99
2017-11-27T02:58:04.409Z,99.99
2017-11-27T02:59:13.868Z,99.99
2017-11-27T03:00:23.845Z,99.99
2017-11-27T03:01:33.563Z,99.99
2017-11-27T03:02:43.528Z,99.99
2017-11-27T03:03:52.704Z,99.99
2017-11-27T03:05:02.403Z,99.99
2017-11-27T03:06:12.108Z,99.99
2017-11-27T03:07:21.805Z,99.99
2017-11-27T03:08:31.250Z,99.99
2017-11-27T03:09:40.968Z,99.99
2017-11-27T03:10:50.667Z,99.99
2017-11-27T03:12:00.412Z,99.99
2017-11-27T03:13:09.599Z,99.99
2017-11-27T03:14:19.560Z,99.99
2017-11-27T03:15:29.528Z,99.99
2017-11-27T03:16:39.502Z,99.99
2017-11-27T03:17:49.476Z,99.99
2017-11-27T03:18:59.184Z,99.99
2017-11-27T03:20:09.161Z,99.99
2017-11-27T03:21:19.147Z,99.99
2017-11-27T03:22:28.587Z,99.99
2017-11-27T03:23:38.038Z,99.99
2017-11-27T03:24:47.766Z,99.99
2017-11-27T03:25:57.735Z,99.99
2017-11-27T03:27:07.717Z,99.99
2017-11-27T03:28:17.424Z,99.99
2017-11-27T03:29:27.428Z,99.99
2017-11-27T03:30:36.881Z,99.99
2017-11-27T03:31:46.858Z,99.99
2017-11-27T03:32:56.573Z,99.99
2017-11-27T03:34:06.544Z,99.99
2017-11-27T03:35:16.526Z,99.99
2017-11-27T03:36:26.535Z,99.99
2017-11-27T03:37:36.513Z,99.99
2017-11-27T03:38:46.224Z,99.99
2017-11-27T03:39:55.413Z,99.99
2017-11-27T03:41:05.120Z,99.99
2017-11-27T03:42:15.096Z,99.99
2017-11-27T03:43:24.801Z,99.99
2017-11-27T03:44:34.790Z,99.99
2017-11-27T03:45:44.497Z,99.99
2017-11-27T03:46:54.224Z,99.99
2017-11-27T03:48:03.697Z,99.99
2017-11-27T03:49:13.677Z,99.99
2017-11-27T03:50:23.657Z,99.99
2017-11-27T03:51:33.356Z,99.99
2017-11-27T03:52:43.333Z,99.99
2017-11-27T03:53:53.308Z,99.99
2017-11-27T03:55:03.020Z,99.99
2017-11-27T03:56:12.726Z,99.99
2017-11-27T03:57:22.697Z,99.99
2017-11-27T03:58:32.408Z,99.99
2017-11-27T03:59:41.866Z,99.99
2017-11-27T04:00:51.045Z,99.99
2017-11-27T04:02:01.038Z,99.99
2017-11-27T04:03:11.011Z,99.99
2017-11-27T04:04:20.729Z,99.99
2017-11-27T04:05:30.693Z,99.99
2017-11-27T04:06:40.684Z,99.99
2017-11-27T04:07:50.678Z,99.99
2017-11-27T04:09:00.129Z,99.99
2017-11-27T04:10:10.114Z,99.99
2017-11-27T04:11:20.090Z,99.99
2017-11-27T04:12:30.058Z,99.99
2017-11-27T04:13:40.031Z,99.99
2017-11-27T04:14:49.993Z,99.99
2017-11-27T04:15:59.171Z,99.99
2017-11-27T04:17:08.902Z,99.99
2017-11-27T04:18:18.881Z,99.99
2017-11-27T04:19:28.864Z,99.99
2017-11-27T04:20:38.575Z,99.99
2017-11-27T04:21:48.547Z,99.99
2017-11-27T04:22:58.510Z,99.99
2017-11-27T04:24:08.225Z,99.99
2017-11-27T04:25:17.669Z,99.99
2017-11-27T04:26:27.393Z,99.99
2017-11-27T04:27:37.371Z,99.99
2017-11-27T04:28:47.339Z,99.99
2017-11-27T04:29:56.785Z,99.99
2017-11-27T04:31:06.762Z,99.99
2017-11-27T04:32:16.733Z,99.99
2017-11-27T04:33:26.442Z,99.99
2017-11-27T04:34:35.885Z,99.99
2017-11-27T04:35:45.586Z,99.99
2017-11-27T04:36:55.284Z,99.99
2017-11-27T04:38:05.248Z,99.99
2017-11-27T04:39:15.206Z,99.99
2017-11-27T04:40:25.186Z,99.99
2017-11-27T04:41:35.163Z,99.99
2017-11-27T04:42:45.134Z,99.99
2017-11-27T04:43:54.852Z,99.99
2017-11-27T04:45:04.840Z,99.99
2017-11-27T04:46:14.858Z,99.99
2017-11-27T04:47:24.324Z,99.99
2017-11-27T04:48:34.029Z,99.99
2017-11-27T04:49:44.015Z,99.99
2017-11-27T04:50:53.727Z,99.99
2017-11-27T04:52:03.463Z,99.99
2017-11-27T04:53:13.470Z,99.99
2017-11-27T04:54:23.169Z,99.99
2017-11-27T04:55:33.173Z,99.99
2017-11-27T04:56:42.881Z,99.99
2017-11-27T04:57:52.597Z,99.99
2017-11-27T04:59:02.055Z,99.99
2017-11-27T05:00:11.748Z,99.99
2017-11-27T05:01:21.457Z,99.99
2017-11-27T05:02:31.459Z,99.99
2017-11-27T05:03:41.158Z,99.99
2017-11-27T05:04:51.126Z,99.99
2017-11-27T05:06:00.821Z,99.99
2017-11-27T05:07:10.806Z,99.99
2017-11-27T05:08:20.776Z,99.99
2017-11-27T05:09:30.481Z,99.99
2017-11-27T05:10:40.204Z,99.99
2017-11-27T05:11:49.646Z,99.99
2017-11-27T05:12:59.625Z,99.99
2017-11-27T05:14:09.594Z,99.99
2017-11-27T05:15:19.295Z,99.99
2017-11-27T05:16:29.270Z,99.99
2017-11-27T05:17:38.977Z,99.99
2017-11-27T05:18:48.691Z,99.99
2017-11-27T05:19:58.143Z,99.99
2017-11-27T05:21:07.868Z,99.99
2017-11-27T05:22:17.832Z,99.99
2017-11-27T05:23:27.537Z,99.99
2017-11-27T05:24:37.396Z,99.99
2017-11-27T05:25:47.108Z,99.99
2017-11-27T05:26:57.113Z,99.99
2017-11-27T05:28:06.041Z,99.99
2017-11-27T05:29:16.021Z,99.99
2017-11-27T05:30:26.026Z,99.99
2017-11-27T05:31:35.716Z,99.99
2017-11-27T05:32:45.696Z,99.99
2017-11-27T05:33:55.400Z,99.99
2017-11-27T05:35:05.129Z,99.99
2017-11-27T05:36:14.829Z,99.99
2017-11-27T05:37:24.796Z,99.99
2017-11-27T05:38:34.241Z,99.99
2017-11-27T05:39:43.946Z,99.99
2017-11-27T05:40:53.921Z,99.99
2017-11-27T05:42:03.642Z,99.99
2017-11-27T05:43:13.625Z,99.99
2017-11-27T05:44:23.316Z,99.99
2017-11-27T05:45:33.041Z,99.99
2017-11-27T05:46:42.735Z,99.99
2017-11-27T05:47:52.447Z,99.99
2017-11-27T05:49:02.149Z,99.99
2017-11-27T05:50:11.853Z,99.99
2017-11-27T05:51:21.555Z,99.99
2017-11-27T05:52:31.262Z,99.99
2017-11-27T05:53:40.978Z,99.99
2017-11-27T05:54:50.704Z,99.99
2017-11-27T05:56:00.417Z,99.99
2017-11-27T05:57:10.401Z,99.99
2017-11-27T05:58:20.108Z,99.99
2017-11-27T05:59:29.817Z,99.99
2017-11-27T06:00:39.782Z,99.99
2017-11-27T06:01:49.479Z,99.99
2017-11-27T06:02:59.193Z,99.99
2017-11-27T06:04:08.655Z,99.99
2017-11-27T06:05:18.376Z,99.99
2017-11-27T06:06:28.338Z,99.99
2017-11-27T06:07:38.304Z,99.99
2017-11-27T06:08:48.280Z,99.99
2017-11-27T06:09:57.989Z,99.99
2017-11-27T06:11:07.681Z,99.99
2017-11-27T06:12:17.664Z,99.99
2017-11-27T06:13:27.634Z,99.99
2017-11-27T06:14:37.336Z,99.99
2017-11-27T06:15:47.050Z,99.99
2017-11-27T06:16:57.014Z,99.99
2017-11-27T06:18:06.448Z,99.99
2017-11-27T06:19:16.420Z,99.99
2017-11-27T06:20:25.593Z,99.99
2017-11-27T06:21:35.590Z,99.99
2017-11-27T06:22:45.298Z,99.99
2017-11-27T06:23:54.998Z,99.99
2017-11-27T06:25:04.993Z,99.99
2017-11-27T06:26:14.988Z,99.99
2017-11-27T06:27:24.683Z,99.99
2017-11-27T06:28:34.131Z,99.99
2017-11-27T06:29:44.088Z,99.99
2017-11-27T06:30:53.812Z,99.99
2017-11-27T06:32:03.534Z,99.99
2017-11-27T06:33:12.971Z,99.99
2017-11-27T06:34:22.411Z,99.99
2017-11-27T06:35:32.392Z,99.99
2017-11-27T06:36:42.116Z,99.99
2017-11-27T06:37:51.841Z,99.99
2017-11-27T06:39:01.562Z,99.99
2017-11-27T06:40:11.537Z,99.99
2017-11-27T06:41:21.287Z,99.99
2017-11-27T06:42:31.253Z,99.99
2017-11-27T06:43:40.966Z,99.99
2017-11-27T06:44:50.944Z,99.99
2017-11-27T06:46:00.693Z,99.99
2017-11-27T06:47:10.678Z,99.99
2017-11-27T06:48:20.404Z,99.99
2017-11-27T06:49:30.129Z,99.99
2017-11-27T06:50:39.581Z,99.99
2017-11-27T06:51:49.574Z,99.99
2017-11-27T06:52:59.548Z,99.99
2017-11-27T06:54:09.276Z,99.99
2017-11-27T06:55:19.257Z,99.99
2017-11-27T06:56:28.966Z,99.99
2017-11-27T06:57:39.170Z,99.99
2017-11-27T06:58:48.890Z,99.99
2017-11-27T06:59:58.605Z,99.99
2017-11-27T07:01:08.604Z,99.99
2017-11-27T07:02:18.680Z,99.99
2017-11-27T07:03:28.761Z,99.99
2017-11-27T07:04:38.763Z,99.99
2017-11-27T07:05:47.962Z,99.99
2017-11-27T07:06:57.971Z,99.99
2017-11-27T07:08:07.670Z,99.99
2017-11-27T07:09:17.650Z,99.99
2017-11-27T07:10:27.872Z,99.99
2017-11-27T07:11:37.578Z,99.99
2017-11-27T07:12:47.555Z,99.99
2017-11-27T07:13:57.553Z,99.99
2017-11-27T07:15:07.258Z,99.99
2017-11-27T07:16:16.970Z,99.99
2017-11-27T07:17:26.415Z,99.99
2017-11-27T07:18:36.388Z,99.99
2017-11-27T07:19:45.838Z,99.99
2017-11-27T07:20:55.546Z,99.99
2017-11-27T07:22:04.727Z,99.99
2017-11-27T07:23:14.448Z,99.99
2017-11-27T07:24:24.185Z,99.99
2017-11-27T07:25:33.899Z,99.99
2017-11-27T07:26:43.613Z,99.99
2017-11-27T07:27:53.339Z,99.99
2017-11-27T07:29:03.325Z,99.99
2017-11-27T07:30:13.043Z,99.99
2017-11-27T07:31:22.490Z,99.99
2017-11-27T07:32:32.210Z,99.99
2017-11-27T07:33:41.981Z,99.99
2017-11-27T07:34:51.961Z,99.99
2017-11-27T07:36:01.926Z,99.99
2017-11-27T07:37:11.646Z,99.99
2017-11-27T07:38:21.349Z,99.99
2017-11-27T07:39:31.059Z,99.99
2017-11-27T07:40:41.026Z,99.99
2017-11-27T07:41:50.999Z,99.99
2017-11-27T07:43:00.990Z,99.99
2017-11-27T07:44:10.969Z,99.99
2017-11-27T07:45:20.956Z,99.99
2017-11-27T07:46:30.668Z,99.99
2017-11-27T07:47:40.630Z,99.99
2017-11-27T07:48:50.632Z,99.99
2017-11-27T07:50:00.352Z,99.99
2017-11-27T07:51:09.802Z,99.99
2017-11-27T07:52:19.505Z,99.99
2017-11-27T07:53:29.475Z,99.99
2017-11-27T07:54:39.190Z,99.99
2017-11-27T07:55:49.158Z,99.99
2017-11-27T07:56:58.874Z,99.99
2017-11-27T07:58:08.564Z,99.99
2017-11-27T07:59:18.262Z,99.99
2017-11-27T08:00:28.241Z,99.99
2017-11-27T08:01:37.959Z,99.99
2017-11-27T08:02:47.933Z,99.99
2017-11-27T08:03:57.892Z,99.99
2017-11-27T08:05:07.601Z,99.99
2017-11-27T08:06:17.569Z,99.99
2017-11-27T08:07:27.336Z,99.99
2017-11-27T08:08:37.303Z,99.99
2017-11-27T08:09:46.893Z,99.99
2017-11-27T08:10:56.247Z,99.99
2017-11-27T08:12:06.248Z,99.99
2017-11-27T08:13:16.264Z,99.99
2017-11-27T08:14:26.251Z,99.99
2017-11-27T08:15:35.987Z,99.99
2017-11-27T08:16:45.723Z,99.99
2017-11-27T08:17:55.697Z,99.99
2017-11-27T08:19:05.425Z,99.99
2017-11-27T08:20:15.152Z,99.99
2017-11-27T08:21:24.862Z,99.99
2017-11-27T08:22:34.589Z,99.99
2017-11-27T08:23:44.572Z,99.99
2017-11-27T08:24:53.765Z,99.99
2017-11-27T08:26:03.738Z,99.99
2017-11-27T08:27:13.478Z,99.99
2017-11-27T08:28:23.206Z,99.99
2017-11-27T08:29:32.958Z,99.99
2017-11-27T08:30:42.165Z,99.99
2017-11-27T08:31:52.148Z,99.99
2017-11-27T08:33:02.148Z,99.99
2017-11-27T08:34:12.185Z,99.99
2017-11-27T08:35:21.652Z,99.99
2017-11-27T08:36:31.126Z,99.99
2017-11-27T08:37:40.571Z,99.99
2017-11-27T08:38:50.549Z,99.99
2017-11-27T08:40:00.285Z,99.99
2017-11-27T08:41:10.281Z,99.99
2017-11-27T08:42:20.036Z,99.99
2017-11-27T08:43:29.756Z,99.99
2017-11-27T08:44:39.470Z,99.99
2017-11-27T08:45:49.693Z,99.99
2017-11-27T08:46:59.429Z,99.99
2017-11-27T08:48:08.626Z,99.99
2017-11-27T08:49:18.357Z,99.99
2017-11-27T08:50:28.078Z,99.99
2017-11-27T08:51:37.799Z,99.99
2017-11-27T08:52:47.267Z,99.99
2017-11-27T08:53:57.264Z,99.99
2017-11-27T08:55:07.018Z,99.99
2017-11-27T08:56:17.001Z,99.99
2017-11-27T08:57:26.989Z,99.99
2017-11-27T08:58:37.023Z,99.99
2017-11-27T08:59:47.018Z,99.99
2017-11-27T09:00:56.727Z,99.99
2017-11-27T09:02:06.184Z,99.99
2017-11-27T09:03:16.191Z,99.99
2017-11-27T09:04:26.185Z,99.99
2017-11-27T09:05:36.178Z,99.99
2017-11-27T09:06:46.156Z,99.99
2017-11-27T09:07:56.139Z,99.99
2017-11-27T09:09:06.124Z,99.99
2017-11-27T09:10:15.893Z,99.99
2017-11-27T09:11:25.889Z,99.99
2017-11-27T09:12:35.593Z,99.99
2017-11-27T09:13:45.293Z,99.99
2017-11-27T09:14:55.267Z,99.99
2017-11-27T09:16:05.242Z,99.99
2017-11-27T09:17:14.947Z,99.99
2017-11-27T09:18:24.425Z,99.99
2017-11-27T09:19:34.133Z,99.99
2017-11-27T09:20:43.844Z,99.99
2017-11-27T09:21:53.835Z,99.99
2017-11-27T09:23:03.558Z,99.99
2017-11-27T09:24:13.533Z,99.99
2017-11-27T09:25:23.248Z,99.99
2017-11-27T09:26:32.968Z,99.99
2017-11-27T09:27:42.679Z,99.99
2017-11-27T09:28:52.132Z,99.99
2017-11-27T09:30:02.146Z,99.99
2017-11-27T09:31:11.881Z,99.99
2017-11-27T09:32:21.626Z,99.99
2017-11-27T09:33:31.645Z,99.99
2017-11-27T09:34:41.656Z,99.99
2017-11-27T09:35:51.381Z,99.99
2017-11-27T09:37:01.104Z,99.99
2017-11-27T09:38:11.122Z,99.99
2017-11-27T09:39:21.083Z,99.99
2017-11-27T09:40:30.788Z,99.99
2017-11-27T09:41:40.840Z,99.99
2017-11-27T09:42:50.555Z,99.99
2017-11-27T09:43:59.998Z,99.99
2017-11-27T09:45:10.000Z,99.99
2017-11-27T09:46:19.714Z,99.99
2017-11-27T09:47:29.686Z,99.99
2017-11-27T09:48:39.669Z,99.99
2017-11-27T09:49:49.665Z,99.99
2017-11-27T09:50:59.132Z,99.99
2017-11-27T09:52:08.847Z,99.99
2017-11-27T09:53:18.845Z,99.99
2017-11-27T09:54:28.561Z,99.99
2017-11-27T09:55:38.291Z,99.99
2017-11-27T09:56:47.742Z,99.99
2017-11-27T09:57:57.458Z,99.99
2017-11-27T09:59:07.204Z,99.99
2017-11-27T10:00:17.229Z,99.99
2017-11-27T10:01:27.204Z,99.99
2017-11-27T10:02:36.917Z,99.99
2017-11-27T10:03:46.912Z,99.99
2017-11-27T10:04:56.746Z,99.99
2017-11-27T10:06:06.722Z,99.99
2017-11-27T10:07:16.711Z,99.99
2017-11-27T10:08:26.458Z,99.99
2017-11-27T10:09:36.158Z,99.99
2017-11-27T10:10:46.142Z,99.99
2017-11-27T10:11:55.074Z,99.99
2017-11-27T10:13:05.068Z,99.99
2017-11-27T10:14:15.063Z,99.99
2017-11-27T10:15:24.786Z,99.99
2017-11-27T10:16:34.778Z,99.99
2017-11-27T10:17:44.780Z,99.99
2017-11-27T10:18:54.783Z,99.99
2017-11-27T10:20:04.480Z,99.99
2017-11-27T10:21:14.448Z,99.99
2017-11-27T10:22:24.432Z,99.99
2017-11-27T10:23:34.408Z,99.99
2017-11-27T10:24:44.403Z,99.99
2017-11-27T10:25:54.614Z,99.99
2017-11-27T10:27:04.598Z,99.99
2017-11-27T10:28:14.313Z,99.99
2017-11-27T10:29:24.039Z,99.99
2017-11-27T10:30:34.003Z,99.99
2017-11-27T10:31:43.990Z,99.99
2017-11-27T10:32:53.970Z,99.99
2017-11-27T10:34:03.975Z,99.99
2017-11-27T10:35:13.693Z,99.99
2017-11-27T10:36:23.676Z,99.99
2017-11-27T10:37:33.402Z,99.99
2017-11-27T10:38:43.121Z,99.99
2017-11-27T10:39:53.105Z,99.99
2017-11-27T10:41:02.851Z,99.99
2017-11-27T10:42:12.836Z,99.99
2017-11-27T10:43:22.573Z,99.99
2017-11-27T10:44:32.556Z,99.99
2017-11-27T10:45:42.595Z,99.99
2017-11-27T10:46:52.059Z,99.99
2017-11-27T10:48:02.038Z,99.99
2017-11-27T10:49:11.750Z,99.99
2017-11-27T10:50:21.761Z,99.99
2017-11-27T10:51:31.485Z,99.99
2017-11-27T10:52:41.220Z,99.99
2017-11-27T10:53:51.219Z,99.99
2017-11-27T10:55:00.937Z,99.99
2017-11-27T10:56:10.937Z,99.99
2017-11-27T10:57:20.688Z,99.99
2017-11-27T10:58:30.663Z,99.99
2017-11-27T10:59:40.384Z,99.99
2017-11-27T11:00:50.371Z,99.99
2017-11-27T11:02:00.108Z,99.4
2017-11-27T11:03:09.820Z,98.21
2017-11-27T11:04:19.803Z,98.02
2017-11-27T11:05:29.789Z,98.4
2017-11-27T11:06:39.497Z,97.83
2017-11-27T11:07:49.221Z,97.92
2017-11-27T11:08:58.935Z,97.17
2017-11-27T11:10:08.426Z,96.79
2017-11-27T11:11:18.416Z,96.31
2017-11-27T11:12:27.891Z,96.88
2017-11-27T11:13:37.606Z,97.07
2017-11-27T11:14:47.576Z,97.55
2017-11-27T11:15:57.576Z,97.55
2017-11-27T11:17:07.565Z,96.98
2017-11-27T11:18:17.285Z,96.98
2017-11-27T11:19:26.762Z,97.17
2017-11-27T11:20:36.737Z,96.79
2017-11-27T11:21:46.471Z,96.98
2017-11-27T11:22:56.195Z,96.98
2017-11-27T11:24:05.932Z,97.64
2017-11-27T11:25:15.663Z,98.21
2017-11-27T11:26:25.131Z,98.54
2017-11-27T11:27:34.889Z,98.35
2017-11-27T11:28:44.644Z,98.35
2017-11-27T11:29:54.618Z,98.83
2017-11-27T11:31:04.597Z,98.64
2017-11-27T11:32:14.314Z,98.64
2017-11-27T11:33:24.137Z,99.21
2017-11-27T11:34:33.599Z,99.21
2017-11-27T11:35:43.582Z,99.68
2017-11-27T11:36:53.308Z,99.35
2017-11-27T11:38:03.027Z,99.44
2017-11-27T11:39:13.006Z,99.99
2017-11-27T11:40:23.296Z,99.99
2017-11-27T11:41:33.298Z,99.99
2017-11-27T11:42:43.030Z,99.99
2017-11-27T11:43:53.037Z,99.99
2017-11-27T11:45:03.034Z,99.44
2017-11-27T11:46:13.008Z,99.58
2017-11-27T11:47:22.994Z,98.16
2017-11-27T11:48:32.449Z,98.73
2017-11-27T11:49:42.163Z,97.6
2017-11-27T11:50:52.138Z,97.12
2017-11-27T11:52:01.605Z,96.17
2017-11-27T11:53:11.606Z,95.79
2017-11-27T11:54:21.321Z,97.22
2017-11-27T11:55:31.324Z,97.6
2017-11-27T11:56:41.309Z,97.6
2017-11-27T11:57:50.753Z,97.41
2017-11-27T11:59:00.488Z,97.69
2017-11-27T12:00:10.492Z,97.78
2017-11-27T12:01:20.515Z,97.88
2017-11-27T12:02:30.260Z,98.35
2017-11-27T12:03:39.708Z,98.26
2017-11-27T12:04:49.476Z,98.92
2017-11-27T12:05:59.474Z,98.64
2017-11-27T12:07:09.197Z,98.68
2017-11-27T12:08:18.380Z,98.68
2017-11-27T12:09:28.096Z,99.44
2017-11-27T12:10:38.092Z,99.82
2017-11-27T12:11:47.806Z,99.26
2017-11-27T12:12:57.778Z,98.87
2017-11-27T12:14:07.769Z,98.87
2017-11-27T12:15:17.476Z,98.4
2017-11-27T12:16:27.470Z,98.78
2017-11-27T12:17:37.228Z,98.87
2017-11-27T12:18:46.987Z,98.87
2017-11-27T12:19:56.709Z,98.4
2017-11-27T12:21:06.170Z,98.21
2017-11-27T12:22:16.170Z,98.4
2017-11-27T12:23:26.169Z,98.3
2017-11-27T12:24:35.645Z,98.68
2017-11-27T12:25:45.635Z,98.3
2017-11-27T12:26:55.656Z,98.4
2017-11-27T12:28:05.111Z,99.44
2017-11-27T12:29:14.840Z,98.68
2017-11-27T12:30:24.563Z,99.26
2017-11-27T12:31:34.293Z,98.21
2017-11-27T12:32:44.270Z,99.16
2017-11-27T12:33:53.998Z,98.97
2017-11-27T12:35:03.741Z,98.49
2017-11-27T12:36:13.752Z,98.21
2017-11-27T12:37:23.735Z,97.92
2017-11-27T12:38:33.213Z,98.02
2017-11-27T12:39:43.188Z,98.02
2017-11-27T12:40:53.386Z,98.21
2017-11-27T12:42:03.137Z,98.3
2017-11-27T12:43:13.186Z,98.4
2017-11-27T12:44:22.607Z,98.68
2017-11-27T12:45:32.340Z,98.4
2017-11-27T12:46:42.076Z,99.54
2017-11-27T12:47:52.076Z,99.26
2017-11-27T12:49:01.835Z,99.35
2017-11-27T12:50:11.807Z,99.99
2017-11-27T12:51:21.252Z,99.26
2017-11-27T12:52:31.271Z,99.99
2017-11-27T12:53:40.990Z,99.35
2017-11-27T12:54:50.714Z,99.63
2017-11-27T12:56:00.440Z,99.26
2017-11-27T12:57:10.157Z,99.39
2017-11-27T12:58:20.154Z,99.49
2017-11-27T12:59:29.864Z,99.99
2017-11-27T13:00:39.585Z,99.99
2017-11-27T13:01:49.582Z,99.77
2017-11-27T13:02:59.309Z,99.99
2017-11-27T13:04:09.298Z,99.99
2017-11-27T13:05:19.476Z,99.99
2017-11-27T13:06:29.470Z,99.99
2017-11-27T13:07:39.223Z,99.99
2017-11-27T13:08:48.945Z,99.01
2017-11-27T13:09:58.680Z,99.01
2017-11-27T13:11:08.655Z,99.39
2017-11-27T13:12:18.636Z,99.3
2017-11-27T13:13:28.348Z,99.39
2017-11-27T13:14:38.077Z,99.87
2017-11-27T13:15:47.542Z,99.3
2017-11-27T13:16:57.525Z,99.26
2017-11-27T13:18:07.244Z,99.39
2017-11-27T13:19:16.957Z,99.77
2017-11-27T13:20:26.697Z,99.77
2017-11-27T13:21:36.157Z,99.58
2017-11-27T13:22:46.147Z,99.96
2017-11-27T13:23:55.856Z,99.63
2017-11-27T13:25:05.319Z,99.99
2017-11-27T13:26:15.038Z,99.77
2017-11-27T13:27:24.743Z,99.99
2017-11-27T13:28:34.478Z,99.49
2017-11-27T13:29:44.204Z,99.01
2017-11-27T13:30:53.933Z,99.99
2017-11-27T13:32:03.901Z,99.99
2017-11-27T13:33:13.630Z,99.87
2017-11-27T13:34:23.606Z,99.3
2017-11-27T13:35:33.603Z,99.77
2017-11-27T13:36:43.044Z,99.49
2017-11-27T13:37:52.767Z,98.92
2017-11-27T13:39:02.764Z,99.87
2017-11-27T13:40:12.475Z,99.58
2017-11-27T13:41:22.203Z,99.01
2017-11-27T13:42:32.216Z,98.63
2017-11-27T13:43:42.191Z,98.11
2017-11-27T13:44:51.652Z,98.25
2017-11-27T13:46:01.094Z,97.69
2017-11-27T13:47:10.548Z,97.78
2017-11-27T13:48:20.291Z,97.59
2017-11-27T13:49:29.755Z,97.78
2017-11-27T13:50:39.749Z,97.78
2017-11-27T13:51:49.496Z,97.78
2017-11-27T13:52:59.486Z,97.97
2017-11-27T13:54:09.474Z,98.16
2017-11-27T13:55:19.189Z,98.54
2017-11-27T13:56:29.171Z,99.2
2017-11-27T13:57:39.137Z,99.01
2017-11-27T13:58:49.119Z,99.77
2017-11-27T13:59:58.854Z,99.99
2017-11-27T14:01:08.875Z,99.99
2017-11-27T14:02:18.586Z,99.99
2017-11-27T14:03:28.584Z,99.99
2017-11-27T14:04:38.608Z,99.99
2017-11-27T14:05:48.331Z,99.99
2017-11-27T14:06:57.536Z,99.99
2017-11-27T14:08:07.247Z,99.99
2017-11-27T14:09:17.239Z,99.99
2017-11-27T14:10:27.214Z,99.99
2017-11-27T14:11:36.944Z,99.99
2017-11-27T14:12:46.390Z,99.99
2017-11-27T14:13:55.585Z,99.99
2017-11-27T14:15:05.390Z,99.99
2017-11-27T14:16:15.113Z,99.99
2017-11-27T14:17:24.853Z,99.99
2017-11-27T14:18:34.355Z,99.99
2017-11-27T14:19:44.081Z,99.99
2017-11-27T14:20:53.544Z,99.99
2017-11-27T14:22:03.529Z,99.99
2017-11-27T14:23:13.286Z,99.99
2017-11-27T14:24:23.266Z,99.99
2017-11-27T14:25:32.998Z,99.99
2017-11-27T14:26:43.003Z,99.99
2017-11-27T14:27:53.041Z,99.99
2017-11-27T14:29:03.042Z,99.99
2017-11-27T14:30:12.495Z,99.99
2017-11-27T14:31:22.202Z,99.99
2017-11-27T14:32:31.924Z,99.99
2017-11-27T14:33:41.624Z,99.99
2017-11-27T14:34:51.599Z,99.99
2017-11-27T14:36:01.333Z,99.99
2017-11-27T14:37:11.049Z,99.99
2017-11-27T14:38:20.769Z,99.99
2017-11-27T14:39:30.474Z,99.99
2017-11-27T14:40:40.445Z,99.99
2017-11-27T14:41:50.417Z,99.99
2017-11-27T14:43:00.406Z,99.99
2017-11-27T14:44:10.105Z,99.99
2017-11-27T14:45:20.124Z,99.99
2017-11-27T14:46:29.829Z,99.99
2017-11-27T14:47:39.559Z,99.99
2017-11-27T14:48:49.006Z,99.99
2017-11-27T14:49:58.721Z,99.99
2017-11-27T14:51:08.711Z,99.99
2017-11-27T14:52:18.426Z,99.99
2017-11-27T14:53:28.407Z,99.99
2017-11-27T14:54:38.389Z,99.99
2017-11-27T14:55:48.382Z,99.99
2017-11-27T14:56:58.100Z,99.99
2017-11-27T14:58:07.833Z,99.99
2017-11-27T14:59:17.349Z,99.99